sensor_id;sensor_type;location;lat;lon;timestamp;P1;durP1;ratioP1;P2;durP2;ratioP2
75059;SDS011;63640;59.264;18.116;2022-11-18T00:01:17;6.25;;;1.23;;
75059;SDS011;63640;59.264;18.116;2022-11-18T00:03:45;4.10;;;1.30;;
75059;SDS011;63640;59.264;18.116;2022-11-18T00:06:14;5.55;;;1.05;;
75059;SDS011;63640;59.264;18.116;2022-11-18T00:08:41;4.47;;;1.30;;
75059;SDS011;63640;59.264;18.116;2022-11-18T00:11:08;6.55;;;1.70;;
75059;SDS011;63640;59.264;18.116;2022-11-18T00:13:35;5.95;;;1.60;;
75059;SDS011;63640;59.264;18.116;2022-11-18T00:16:20;5.38;;;1.60;;
75059;SDS011;63640;59.264;18.116;2022-11-18T00:18:45;7.63;;;1.80;;
75059;SDS011;63640;59.264;18.116;2022-11-18T00:21:11;4.05;;;1.20;;
75059;SDS011;63640;59.264;18.116;2022-11-18T00:23:37;5.70;;;1.60;;
75059;SDS011;63640;59.264;18.116;2022-11-18T00:26:04;5.88;;;1.75;;
75059;SDS011;63640;59.264;18.116;2022-11-18T00:28:31;5.90;;;1.98;;
75059;SDS011;63640;59.264;18.116;2022-11-18T00:31:04;4.40;;;1.40;;
75059;SDS011;63640;59.264;18.116;2022-11-18T00:33:33;7.15;;;1.75;;
75059;SDS011;63640;59.264;18.116;2022-11-18T00:36:01;11.65;;;1.63;;
75059;SDS011;63640;59.264;18.116;2022-11-18T00:38:27;4.00;;;1.30;;
75059;SDS011;63640;59.264;18.116;2022-11-18T00:41:03;3.88;;;1.20;;
75059;SDS011;63640;59.264;18.116;2022-11-18T00:43:30;4.05;;;1.35;;
75059;SDS011;63640;59.264;18.116;2022-11-18T00:45:56;5.03;;;1.15;;
75059;SDS011;63640;59.264;18.116;2022-11-18T00:48:22;4.03;;;1.15;;
75059;SDS011;63640;59.264;18.116;2022-11-18T00:50:48;3.63;;;1.20;;
75059;SDS011;63640;59.264;18.116;2022-11-18T00:53:14;6.43;;;1.38;;
75059;SDS011;63640;59.264;18.116;2022-11-18T00:55:40;4.10;;;1.23;;
75059;SDS011;63640;59.264;18.116;2022-11-18T00:58:06;4.63;;;1.40;;
75059;SDS011;63640;59.264;18.116;2022-11-18T01:00:31;4.97;;;1.30;;
75059;SDS011;63640;59.264;18.116;2022-11-18T01:02:57;3.67;;;1.30;;
75059;SDS011;63640;59.264;18.116;2022-11-18T01:05:22;7.72;;;1.80;;
75059;SDS011;63640;59.264;18.116;2022-11-18T01:07:48;4.00;;;1.48;;
75059;SDS011;63640;59.264;18.116;2022-11-18T01:10:14;5.55;;;1.30;;
75059;SDS011;63640;59.264;18.116;2022-11-18T01:12:40;4.55;;;1.13;;
75059;SDS011;63640;59.264;18.116;2022-11-18T01:15:24;4.57;;;1.13;;
75059;SDS011;63640;59.264;18.116;2022-11-18T01:17:49;4.03;;;1.27;;
75059;SDS011;63640;59.264;18.116;2022-11-18T01:20:15;5.85;;;1.23;;
75059;SDS011;63640;59.264;18.116;2022-11-18T01:22:40;4.25;;;1.30;;
75059;SDS011;63640;59.264;18.116;2022-11-18T01:25:06;4.60;;;1.23;;
75059;SDS011;63640;59.264;18.116;2022-11-18T01:27:32;3.60;;;1.02;;
75059;SDS011;63640;59.264;18.116;2022-11-18T01:29:58;5.25;;;1.10;;
75059;SDS011;63640;59.264;18.116;2022-11-18T01:32:23;3.22;;;1.10;;
75059;SDS011;63640;59.264;18.116;2022-11-18T01:34:49;6.47;;;1.17;;
75059;SDS011;63640;59.264;18.116;2022-11-18T01:37:14;3.42;;;1.10;;
75059;SDS011;63640;59.264;18.116;2022-11-18T01:39:40;2.95;;;0.95;;
75059;SDS011;63640;59.264;18.116;2022-11-18T01:42:08;4.32;;;1.10;;
75059;SDS011;63640;59.264;18.116;2022-11-18T01:47:33;2.90;;;0.90;;
75059;SDS011;63640;59.264;18.116;2022-11-18T01:50:02;2.88;;;0.98;;
75059;SDS011;63640;59.264;18.116;2022-11-18T01:52:28;3.58;;;1.10;;
75059;SDS011;63640;59.264;18.116;2022-11-18T01:54:54;1.83;;;0.73;;
75059;SDS011;63640;59.264;18.116;2022-11-18T01:57:22;1.85;;;0.82;;
75059;SDS011;63640;59.264;18.116;2022-11-18T01:59:52;3.30;;;0.98;;
75059;SDS011;63640;59.264;18.116;2022-11-18T02:02:19;1.08;;;0.52;;
75059;SDS011;63640;59.264;18.116;2022-11-18T02:04:47;3.70;;;0.90;;
75059;SDS011;63640;59.264;18.116;2022-11-18T02:07:13;2.72;;;0.80;;
75059;SDS011;63640;59.264;18.116;2022-11-18T02:09:39;3.53;;;0.90;;
75059;SDS011;63640;59.264;18.116;2022-11-18T02:12:04;3.05;;;0.60;;
75059;SDS011;63640;59.264;18.116;2022-11-18T02:14:31;3.25;;;0.80;;
75059;SDS011;63640;59.264;18.116;2022-11-18T02:17:14;1.60;;;0.63;;
75059;SDS011;63640;59.264;18.116;2022-11-18T02:22:28;3.72;;;0.80;;
75059;SDS011;63640;59.264;18.116;2022-11-18T02:30:25;3.53;;;0.60;;
75059;SDS011;63640;59.264;18.116;2022-11-18T02:32:57;4.03;;;0.93;;
75059;SDS011;63640;59.264;18.116;2022-11-18T02:35:29;3.53;;;0.90;;
75059;SDS011;63640;59.264;18.116;2022-11-18T02:40:28;4.18;;;0.90;;
75059;SDS011;63640;59.264;18.116;2022-11-18T02:43:01;3.28;;;0.88;;
75059;SDS011;63640;59.264;18.116;2022-11-18T02:45:29;4.45;;;1.08;;
75059;SDS011;63640;59.264;18.116;2022-11-18T02:47:55;3.10;;;1.05;;
75059;SDS011;63640;59.264;18.116;2022-11-18T02:50:22;4.07;;;1.00;;
75059;SDS011;63640;59.264;18.116;2022-11-18T02:52:52;4.93;;;1.00;;
75059;SDS011;63640;59.264;18.116;2022-11-18T02:55:20;2.58;;;0.80;;
75059;SDS011;63640;59.264;18.116;2022-11-18T02:57:46;2.83;;;1.00;;
75059;SDS011;63640;59.264;18.116;2022-11-18T03:00:12;5.95;;;0.98;;
75059;SDS011;63640;59.264;18.116;2022-11-18T03:02:42;3.28;;;0.98;;
75059;SDS011;63640;59.264;18.116;2022-11-18T03:05:29;4.00;;;1.00;;
75059;SDS011;63640;59.264;18.116;2022-11-18T03:08:02;4.28;;;0.95;;
75059;SDS011;63640;59.264;18.116;2022-11-18T03:10:34;8.40;;;1.15;;
75059;SDS011;63640;59.264;18.116;2022-11-18T03:13:13;3.92;;;1.10;;
75059;SDS011;63640;59.264;18.116;2022-11-18T03:16:07;2.20;;;0.70;;
75059;SDS011;63640;59.264;18.116;2022-11-18T03:18:38;4.13;;;1.27;;
75059;SDS011;63640;59.264;18.116;2022-11-18T03:21:10;4.70;;;1.00;;
75059;SDS011;63640;59.264;18.116;2022-11-18T03:23:42;5.30;;;1.27;;
75059;SDS011;63640;59.264;18.116;2022-11-18T03:26:39;4.93;;;1.08;;
75059;SDS011;63640;59.264;18.116;2022-11-18T03:29:09;4.70;;;1.10;;
75059;SDS011;63640;59.264;18.116;2022-11-18T03:31:49;3.42;;;0.85;;
75059;SDS011;63640;59.264;18.116;2022-11-18T03:34:25;3.45;;;1.00;;
75059;SDS011;63640;59.264;18.116;2022-11-18T03:36:55;5.97;;;1.40;;
75059;SDS011;63640;59.264;18.116;2022-11-18T03:39:22;2.85;;;0.98;;
75059;SDS011;63640;59.264;18.116;2022-11-18T03:41:50;7.10;;;1.25;;
75059;SDS011;63640;59.264;18.116;2022-11-18T03:44:20;4.30;;;1.20;;
75059;SDS011;63640;59.264;18.116;2022-11-18T03:46:56;3.92;;;1.08;;
75059;SDS011;63640;59.264;18.116;2022-11-18T03:49:44;4.63;;;1.02;;
75059;SDS011;63640;59.264;18.116;2022-11-18T03:52:16;6.32;;;1.05;;
75059;SDS011;63640;59.264;18.116;2022-11-18T03:54:46;5.25;;;1.00;;
75059;SDS011;63640;59.264;18.116;2022-11-18T03:57:15;4.60;;;1.23;;
75059;SDS011;63640;59.264;18.116;2022-11-18T04:00:04;8.00;;;1.20;;
75059;SDS011;63640;59.264;18.116;2022-11-18T04:02:31;4.82;;;1.05;;
75059;SDS011;63640;59.264;18.116;2022-11-18T04:04:57;2.70;;;1.00;;
75059;SDS011;63640;59.264;18.116;2022-11-18T04:07:26;3.70;;;0.95;;
75059;SDS011;63640;59.264;18.116;2022-11-18T04:14:57;2.65;;;0.90;;
75059;SDS011;63640;59.264;18.116;2022-11-18T04:17:25;7.18;;;1.00;;
75059;SDS011;63640;59.264;18.116;2022-11-18T04:19:52;5.75;;;1.13;;
75059;SDS011;63640;59.264;18.116;2022-11-18T04:22:20;3.80;;;1.00;;
75059;SDS011;63640;59.264;18.116;2022-11-18T04:24:46;3.22;;;0.90;;
75059;SDS011;63640;59.264;18.116;2022-11-18T04:27:11;2.28;;;1.40;;
75059;SDS011;63640;59.264;18.116;2022-11-18T04:29:37;4.95;;;1.10;;
75059;SDS011;63640;59.264;18.116;2022-11-18T04:32:02;2.15;;;0.90;;
75059;SDS011;63640;59.264;18.116;2022-11-18T04:34:29;3.72;;;0.90;;
75059;SDS011;63640;59.264;18.116;2022-11-18T04:36:55;2.97;;;0.90;;
75059;SDS011;63640;59.264;18.116;2022-11-18T04:39:20;4.28;;;1.13;;
75059;SDS011;63640;59.264;18.116;2022-11-18T04:41:46;3.33;;;1.02;;
75059;SDS011;63640;59.264;18.116;2022-11-18T04:44:24;2.45;;;0.90;;
75059;SDS011;63640;59.264;18.116;2022-11-18T04:46:51;2.22;;;0.73;;
75059;SDS011;63640;59.264;18.116;2022-11-18T04:49:17;2.60;;;0.80;;
75059;SDS011;63640;59.264;18.116;2022-11-18T04:51:45;2.53;;;0.80;;
75059;SDS011;63640;59.264;18.116;2022-11-18T04:54:11;2.58;;;0.80;;
75059;SDS011;63640;59.264;18.116;2022-11-18T04:56:37;4.35;;;1.05;;
75059;SDS011;63640;59.264;18.116;2022-11-18T04:59:04;3.10;;;0.77;;
75059;SDS011;63640;59.264;18.116;2022-11-18T05:01:30;2.78;;;0.80;;
75059;SDS011;63640;59.264;18.116;2022-11-18T05:03:56;3.55;;;1.00;;
75059;SDS011;63640;59.264;18.116;2022-11-18T05:06:21;2.47;;;0.80;;
75059;SDS011;63640;59.264;18.116;2022-11-18T05:08:48;2.13;;;0.80;;
75059;SDS011;63640;59.264;18.116;2022-11-18T05:11:13;3.58;;;0.93;;
75059;SDS011;63640;59.264;18.116;2022-11-18T05:13:57;3.92;;;1.00;;
75059;SDS011;63640;59.264;18.116;2022-11-18T05:16:23;3.97;;;1.10;;
75059;SDS011;63640;59.264;18.116;2022-11-18T05:18:48;3.95;;;0.80;;
75059;SDS011;63640;59.264;18.116;2022-11-18T05:21:14;3.28;;;0.90;;
75059;SDS011;63640;59.264;18.116;2022-11-18T05:23:39;3.05;;;0.90;;
75059;SDS011;63640;59.264;18.116;2022-11-18T05:26:06;2.95;;;1.00;;
75059;SDS011;63640;59.264;18.116;2022-11-18T05:28:32;2.45;;;0.80;;
75059;SDS011;63640;59.264;18.116;2022-11-18T05:30:58;2.47;;;0.88;;
75059;SDS011;63640;59.264;18.116;2022-11-18T05:33:24;3.00;;;0.88;;
75059;SDS011;63640;59.264;18.116;2022-11-18T05:35:49;7.05;;;1.10;;
75059;SDS011;63640;59.264;18.116;2022-11-18T05:38:15;4.78;;;1.20;;
75059;SDS011;63640;59.264;18.116;2022-11-18T05:40:43;3.70;;;0.90;;
75059;SDS011;63640;59.264;18.116;2022-11-18T05:43:09;4.10;;;1.33;;
75059;SDS011;63640;59.264;18.116;2022-11-18T05:45:35;3.88;;;1.20;;
75059;SDS011;63640;59.264;18.116;2022-11-18T05:48:01;5.57;;;1.55;;
75059;SDS011;63640;59.264;18.116;2022-11-18T05:50:28;4.70;;;1.25;;
75059;SDS011;63640;59.264;18.116;2022-11-18T05:52:59;4.63;;;1.10;;
75059;SDS011;63640;59.264;18.116;2022-11-18T05:55:26;5.88;;;1.20;;
75059;SDS011;63640;59.264;18.116;2022-11-18T05:57:54;4.90;;;1.30;;
75059;SDS011;63640;59.264;18.116;2022-11-18T06:00:19;3.97;;;1.20;;
75059;SDS011;63640;59.264;18.116;2022-11-18T06:02:45;3.13;;;1.00;;
75059;SDS011;63640;59.264;18.116;2022-11-18T06:05:12;2.60;;;0.90;;
75059;SDS011;63640;59.264;18.116;2022-11-18T06:07:38;4.78;;;1.17;;
75059;SDS011;63640;59.264;18.116;2022-11-18T06:10:06;4.03;;;1.20;;
75059;SDS011;63640;59.264;18.116;2022-11-18T06:12:40;4.60;;;1.70;;
75059;SDS011;63640;59.264;18.116;2022-11-18T06:15:15;4.72;;;1.23;;
75059;SDS011;63640;59.264;18.116;2022-11-18T06:17:46;3.65;;;1.33;;
75059;SDS011;63640;59.264;18.116;2022-11-18T06:20:23;5.95;;;1.25;;
75059;SDS011;63640;59.264;18.116;2022-11-18T06:22:50;6.38;;;1.55;;
75059;SDS011;63640;59.264;18.116;2022-11-18T06:25:18;5.38;;;1.40;;
75059;SDS011;63640;59.264;18.116;2022-11-18T06:27:43;5.85;;;1.23;;
75059;SDS011;63640;59.264;18.116;2022-11-18T06:30:09;3.97;;;1.45;;
75059;SDS011;63640;59.264;18.116;2022-11-18T06:32:35;4.13;;;1.30;;
75059;SDS011;63640;59.264;18.116;2022-11-18T06:35:01;3.22;;;1.20;;
75059;SDS011;63640;59.264;18.116;2022-11-18T06:37:26;5.75;;;1.75;;
75059;SDS011;63640;59.264;18.116;2022-11-18T06:39:52;5.45;;;1.67;;
75059;SDS011;63640;59.264;18.116;2022-11-18T06:42:17;4.60;;;2.03;;
75059;SDS011;63640;59.264;18.116;2022-11-18T06:45:02;4.07;;;1.40;;
75059;SDS011;63640;59.264;18.116;2022-11-18T06:47:28;5.53;;;1.40;;
75059;SDS011;63640;59.264;18.116;2022-11-18T06:49:54;5.35;;;1.60;;
75059;SDS011;63640;59.264;18.116;2022-11-18T06:52:20;3.85;;;1.23;;
75059;SDS011;63640;59.264;18.116;2022-11-18T06:54:46;5.53;;;1.35;;
75059;SDS011;63640;59.264;18.116;2022-11-18T06:57:12;5.30;;;1.40;;
75059;SDS011;63640;59.264;18.116;2022-11-18T06:59:37;5.10;;;1.55;;
75059;SDS011;63640;59.264;18.116;2022-11-18T07:02:03;3.95;;;1.60;;
75059;SDS011;63640;59.264;18.116;2022-11-18T07:04:28;3.72;;;1.30;;
75059;SDS011;63640;59.264;18.116;2022-11-18T07:06:53;4.15;;;1.42;;
75059;SDS011;63640;59.264;18.116;2022-11-18T07:09:19;5.45;;;1.70;;
75059;SDS011;63640;59.264;18.116;2022-11-18T07:11:44;6.90;;;2.08;;
75059;SDS011;63640;59.264;18.116;2022-11-18T07:14:11;4.93;;;1.80;;
75059;SDS011;63640;59.264;18.116;2022-11-18T07:16:37;3.80;;;1.40;;
75059;SDS011;63640;59.264;18.116;2022-11-18T07:19:12;4.65;;;1.65;;
75059;SDS011;63640;59.264;18.116;2022-11-18T07:21:38;5.82;;;1.60;;
75059;SDS011;63640;59.264;18.116;2022-11-18T07:24:07;8.43;;;1.40;;
75059;SDS011;63640;59.264;18.116;2022-11-18T07:26:33;4.10;;;1.40;;
75059;SDS011;63640;59.264;18.116;2022-11-18T07:28:59;3.47;;;1.35;;
75059;SDS011;63640;59.264;18.116;2022-11-18T07:31:25;4.45;;;1.42;;
75059;SDS011;63640;59.264;18.116;2022-11-18T07:33:51;4.72;;;1.25;;
75059;SDS011;63640;59.264;18.116;2022-11-18T07:36:19;5.32;;;1.55;;
75059;SDS011;63640;59.264;18.116;2022-11-18T07:38:46;5.93;;;1.40;;
75059;SDS011;63640;59.264;18.116;2022-11-18T07:41:15;5.47;;;1.20;;
75059;SDS011;63640;59.264;18.116;2022-11-18T07:43:43;4.70;;;1.40;;
75059;SDS011;63640;59.264;18.116;2022-11-18T07:46:13;6.03;;;1.23;;
75059;SDS011;63640;59.264;18.116;2022-11-18T07:48:46;6.65;;;1.73;;
75059;SDS011;63640;59.264;18.116;2022-11-18T07:51:13;4.78;;;1.50;;
75059;SDS011;63640;59.264;18.116;2022-11-18T07:53:40;5.38;;;1.40;;
75059;SDS011;63640;59.264;18.116;2022-11-18T07:56:06;4.75;;;1.40;;
75059;SDS011;63640;59.264;18.116;2022-11-18T07:58:32;5.70;;;1.25;;
75059;SDS011;63640;59.264;18.116;2022-11-18T08:00:58;4.03;;;1.48;;
75059;SDS011;63640;59.264;18.116;2022-11-18T08:03:24;3.72;;;1.50;;
75059;SDS011;63640;59.264;18.116;2022-11-18T08:05:51;4.53;;;1.38;;
75059;SDS011;63640;59.264;18.116;2022-11-18T08:08:16;4.10;;;1.13;;
75059;SDS011;63640;59.264;18.116;2022-11-18T08:10:42;4.05;;;1.73;;
75059;SDS011;63640;59.264;18.116;2022-11-18T08:13:07;4.00;;;1.30;;
75059;SDS011;63640;59.264;18.116;2022-11-18T08:15:33;4.10;;;1.35;;
75059;SDS011;63640;59.264;18.116;2022-11-18T08:17:58;5.43;;;1.60;;
75059;SDS011;63640;59.264;18.116;2022-11-18T08:20:23;5.43;;;1.92;;
75059;SDS011;63640;59.264;18.116;2022-11-18T08:22:51;6.45;;;1.83;;
75059;SDS011;63640;59.264;18.116;2022-11-18T08:25:16;5.30;;;1.80;;
75059;SDS011;63640;59.264;18.116;2022-11-18T08:27:42;8.20;;;1.88;;
75059;SDS011;63640;59.264;18.116;2022-11-18T08:30:08;4.32;;;1.38;;
75059;SDS011;63640;59.264;18.116;2022-11-18T08:32:34;8.27;;;1.92;;
75059;SDS011;63640;59.264;18.116;2022-11-18T08:34:59;4.88;;;1.70;;
75059;SDS011;63640;59.264;18.116;2022-11-18T08:37:25;5.20;;;1.30;;
75059;SDS011;63640;59.264;18.116;2022-11-18T08:39:50;7.47;;;1.83;;
75059;SDS011;63640;59.264;18.116;2022-11-18T08:42:16;6.82;;;1.55;;
75059;SDS011;63640;59.264;18.116;2022-11-18T08:44:46;5.57;;;2.00;;
75059;SDS011;63640;59.264;18.116;2022-11-18T08:47:11;4.10;;;1.55;;
75059;SDS011;63640;59.264;18.116;2022-11-18T08:49:37;4.90;;;1.58;;
75059;SDS011;63640;59.264;18.116;2022-11-18T08:52:02;3.75;;;1.38;;
75059;SDS011;63640;59.264;18.116;2022-11-18T08:54:28;5.00;;;1.40;;
75059;SDS011;63640;59.264;18.116;2022-11-18T08:56:53;4.95;;;1.80;;
75059;SDS011;63640;59.264;18.116;2022-11-18T08:59:19;7.15;;;1.80;;
75059;SDS011;63640;59.264;18.116;2022-11-18T09:01:45;3.67;;;1.23;;
75059;SDS011;63640;59.264;18.116;2022-11-18T09:04:11;4.30;;;2.13;;
75059;SDS011;63640;59.264;18.116;2022-11-18T09:06:36;4.25;;;1.60;;
75059;SDS011;63640;59.264;18.116;2022-11-18T09:09:03;4.80;;;1.45;;
75059;SDS011;63640;59.264;18.116;2022-11-18T09:11:28;4.38;;;1.63;;
75059;SDS011;63640;59.264;18.116;2022-11-18T09:13:54;4.88;;;1.42;;
75059;SDS011;63640;59.264;18.116;2022-11-18T09:16:23;5.55;;;1.33;;
75059;SDS011;63640;59.264;18.116;2022-11-18T09:18:50;4.25;;;1.60;;
75059;SDS011;63640;59.264;18.116;2022-11-18T09:21:16;5.28;;;1.60;;
75059;SDS011;63640;59.264;18.116;2022-11-18T09:23:42;3.83;;;1.20;;
75059;SDS011;63640;59.264;18.116;2022-11-18T09:26:09;3.00;;;1.10;;
75059;SDS011;63640;59.264;18.116;2022-11-18T09:28:36;3.95;;;1.33;;
75059;SDS011;63640;59.264;18.116;2022-11-18T09:31:12;3.17;;;1.08;;
75059;SDS011;63640;59.264;18.116;2022-11-18T09:33:38;4.07;;;1.50;;
75059;SDS011;63640;59.264;18.116;2022-11-18T09:36:05;8.18;;;1.40;;
75059;SDS011;63640;59.264;18.116;2022-11-18T09:38:35;4.55;;;1.35;;
75059;SDS011;63640;59.264;18.116;2022-11-18T09:49:47;4.57;;;1.55;;
75059;SDS011;63640;59.264;18.116;2022-11-18T09:54:46;3.63;;;1.30;;
75059;SDS011;63640;59.264;18.116;2022-11-18T09:57:19;4.13;;;1.50;;
75059;SDS011;63640;59.264;18.116;2022-11-18T09:59:45;4.75;;;1.70;;
75059;SDS011;63640;59.264;18.116;2022-11-18T10:05:14;4.07;;;1.30;;
75059;SDS011;63640;59.264;18.116;2022-11-18T10:07:41;6.88;;;1.45;;
75059;SDS011;63640;59.264;18.116;2022-11-18T10:13:03;4.20;;;1.60;;
75059;SDS011;63640;59.264;18.116;2022-11-18T10:15:37;6.32;;;2.00;;
75059;SDS011;63640;59.264;18.116;2022-11-18T10:20:55;5.60;;;1.90;;
75059;SDS011;63640;59.264;18.116;2022-11-18T10:26:32;6.22;;;1.80;;
75059;SDS011;63640;59.264;18.116;2022-11-18T10:28:58;7.18;;;1.90;;
75059;SDS011;63640;59.264;18.116;2022-11-18T10:31:24;4.68;;;1.55;;
75059;SDS011;63640;59.264;18.116;2022-11-18T10:33:56;3.90;;;1.60;;
75059;SDS011;63640;59.264;18.116;2022-11-18T10:36:24;4.57;;;1.60;;
75059;SDS011;63640;59.264;18.116;2022-11-18T10:39:05;4.30;;;1.67;;
75059;SDS011;63640;59.264;18.116;2022-11-18T10:41:40;7.05;;;1.33;;
75059;SDS011;63640;59.264;18.116;2022-11-18T10:44:33;4.15;;;1.35;;
75059;SDS011;63640;59.264;18.116;2022-11-18T10:47:24;4.32;;;1.45;;
75059;SDS011;63640;59.264;18.116;2022-11-18T10:49:51;3.53;;;1.02;;
75059;SDS011;63640;59.264;18.116;2022-11-18T10:52:21;4.25;;;1.38;;
75059;SDS011;63640;59.264;18.116;2022-11-18T10:55:04;5.15;;;1.50;;
75059;SDS011;63640;59.264;18.116;2022-11-18T10:57:43;4.40;;;1.17;;
75059;SDS011;63640;59.264;18.116;2022-11-18T11:03:22;3.42;;;1.17;;
75059;SDS011;63640;59.264;18.116;2022-11-18T11:09:04;3.25;;;1.10;;
75059;SDS011;63640;59.264;18.116;2022-11-18T11:11:40;2.58;;;0.88;;
75059;SDS011;63640;59.264;18.116;2022-11-18T11:14:25;5.32;;;1.17;;
75059;SDS011;63640;59.264;18.116;2022-11-18T11:19:30;7.22;;;1.65;;
75059;SDS011;63640;59.264;18.116;2022-11-18T11:22:00;3.70;;;1.30;;
75059;SDS011;63640;59.264;18.116;2022-11-18T11:24:26;5.80;;;1.10;;
75059;SDS011;63640;59.264;18.116;2022-11-18T11:29:33;4.93;;;1.45;;
75059;SDS011;63640;59.264;18.116;2022-11-18T11:32:22;3.97;;;1.10;;
75059;SDS011;63640;59.264;18.116;2022-11-18T11:34:56;4.10;;;1.38;;
75059;SDS011;63640;59.264;18.116;2022-11-18T11:37:46;3.70;;;1.38;;
75059;SDS011;63640;59.264;18.116;2022-11-18T11:40:25;4.20;;;1.30;;
75059;SDS011;63640;59.264;18.116;2022-11-18T11:57:14;2.67;;;1.00;;
75059;SDS011;63640;59.264;18.116;2022-11-18T12:05:27;3.15;;;0.98;;
75059;SDS011;63640;59.264;18.116;2022-11-18T12:07:59;3.33;;;0.90;;
75059;SDS011;63640;59.264;18.116;2022-11-18T12:10:27;3.95;;;1.40;;
75059;SDS011;63640;59.264;18.116;2022-11-18T12:15:54;6.38;;;1.50;;
75059;SDS011;63640;59.264;18.116;2022-11-18T12:20:54;4.00;;;1.15;;
75059;SDS011;63640;59.264;18.116;2022-11-18T12:23:21;2.83;;;1.00;;
75059;SDS011;63640;59.264;18.116;2022-11-18T12:28:34;4.18;;;1.10;;
75059;SDS011;63640;59.264;18.116;2022-11-18T12:33:52;2.50;;;0.90;;
75059;SDS011;63640;59.264;18.116;2022-11-18T12:38:58;3.47;;;1.17;;
75059;SDS011;63640;59.264;18.116;2022-11-18T12:41:52;5.13;;;1.48;;
75059;SDS011;63640;59.264;18.116;2022-11-18T12:44:38;5.20;;;1.40;;
75059;SDS011;63640;59.264;18.116;2022-11-18T12:47:13;2.75;;;0.82;;
75059;SDS011;63640;59.264;18.116;2022-11-18T12:57:53;3.00;;;0.80;;
75059;SDS011;63640;59.264;18.116;2022-11-18T13:02:53;3.95;;;1.10;;
75059;SDS011;63640;59.264;18.116;2022-11-18T13:05:23;3.63;;;1.20;;
75059;SDS011;63640;59.264;18.116;2022-11-18T13:07:55;3.03;;;1.00;;
75059;SDS011;63640;59.264;18.116;2022-11-18T13:10:47;3.20;;;0.85;;
75059;SDS011;63640;59.264;18.116;2022-11-18T13:13:37;3.40;;;1.10;;
75059;SDS011;63640;59.264;18.116;2022-11-18T13:16:12;3.05;;;1.00;;
75059;SDS011;63640;59.264;18.116;2022-11-18T13:19:00;3.50;;;1.00;;
75059;SDS011;63640;59.264;18.116;2022-11-18T13:21:27;2.38;;;0.80;;
75059;SDS011;63640;59.264;18.116;2022-11-18T13:24:19;1.75;;;0.70;;
75059;SDS011;63640;59.264;18.116;2022-11-18T13:26:46;3.35;;;1.00;;
75059;SDS011;63640;59.264;18.116;2022-11-18T13:34:36;3.30;;;1.13;;
75059;SDS011;63640;59.264;18.116;2022-11-18T13:37:10;3.20;;;1.00;;
75059;SDS011;63640;59.264;18.116;2022-11-18T13:39:41;2.70;;;0.93;;
75059;SDS011;63640;59.264;18.116;2022-11-18T13:47:38;4.65;;;0.80;;
75059;SDS011;63640;59.264;18.116;2022-11-18T13:52:42;2.80;;;0.90;;
75059;SDS011;63640;59.264;18.116;2022-11-18T13:55:19;1.98;;;0.93;;
75059;SDS011;63640;59.264;18.116;2022-11-18T13:57:51;2.75;;;0.90;;
75059;SDS011;63640;59.264;18.116;2022-11-18T14:00:25;2.72;;;0.90;;
75059;SDS011;63640;59.264;18.116;2022-11-18T14:02:53;3.97;;;0.82;;
75059;SDS011;63640;59.264;18.116;2022-11-18T14:05:23;1.80;;;0.82;;
75059;SDS011;63640;59.264;18.116;2022-11-18T14:08:04;2.75;;;1.00;;
75059;SDS011;63640;59.264;18.116;2022-11-18T14:10:32;2.78;;;1.10;;
75059;SDS011;63640;59.264;18.116;2022-11-18T14:13:11;1.92;;;0.80;;
75059;SDS011;63640;59.264;18.116;2022-11-18T14:15:43;2.42;;;0.73;;
75059;SDS011;63640;59.264;18.116;2022-11-18T14:18:19;2.45;;;0.85;;
75059;SDS011;63640;59.264;18.116;2022-11-18T14:20:52;2.47;;;0.98;;
75059;SDS011;63640;59.264;18.116;2022-11-18T14:23:19;2.83;;;0.88;;
75059;SDS011;63640;59.264;18.116;2022-11-18T14:30:55;2.80;;;0.90;;
75059;SDS011;63640;59.264;18.116;2022-11-18T14:36:45;4.10;;;1.10;;
75059;SDS011;63640;59.264;18.116;2022-11-18T14:39:32;3.22;;;1.02;;
75059;SDS011;63640;59.264;18.116;2022-11-18T14:41:57;3.95;;;1.10;;
75059;SDS011;63640;59.264;18.116;2022-11-18T14:44:24;2.60;;;0.90;;
75059;SDS011;63640;59.264;18.116;2022-11-18T14:46:57;2.70;;;1.00;;
75059;SDS011;63640;59.264;18.116;2022-11-18T14:49:24;3.25;;;1.20;;
75059;SDS011;63640;59.264;18.116;2022-11-18T14:51:51;2.78;;;1.00;;
75059;SDS011;63640;59.264;18.116;2022-11-18T14:54:18;4.30;;;1.00;;
75059;SDS011;63640;59.264;18.116;2022-11-18T14:56:46;2.88;;;1.10;;
75059;SDS011;63640;59.264;18.116;2022-11-18T14:59:14;2.92;;;0.90;;
75059;SDS011;63640;59.264;18.116;2022-11-18T15:01:41;3.05;;;0.90;;
75059;SDS011;63640;59.264;18.116;2022-11-18T15:04:08;2.63;;;0.85;;
75059;SDS011;63640;59.264;18.116;2022-11-18T15:06:34;3.65;;;1.25;;
75059;SDS011;63640;59.264;18.116;2022-11-18T15:09:00;3.38;;;0.85;;
75059;SDS011;63640;59.264;18.116;2022-11-18T15:11:26;2.30;;;0.90;;
75059;SDS011;63640;59.264;18.116;2022-11-18T15:13:51;2.72;;;0.98;;
75059;SDS011;63640;59.264;18.116;2022-11-18T15:16:21;3.35;;;0.93;;
75059;SDS011;63640;59.264;18.116;2022-11-18T15:18:51;5.53;;;1.10;;
75059;SDS011;63640;59.264;18.116;2022-11-18T15:21:18;2.30;;;0.88;;
75059;SDS011;63640;59.264;18.116;2022-11-18T15:23:44;3.30;;;1.10;;
75059;SDS011;63640;59.264;18.116;2022-11-18T15:26:13;2.33;;;1.00;;
75059;SDS011;63640;59.264;18.116;2022-11-18T15:28:42;6.18;;;1.15;;
75059;SDS011;63640;59.264;18.116;2022-11-18T15:31:08;3.20;;;0.90;;
75059;SDS011;63640;59.264;18.116;2022-11-18T15:33:33;3.50;;;1.02;;
75059;SDS011;63640;59.264;18.116;2022-11-18T15:35:59;1.85;;;0.80;;
75059;SDS011;63640;59.264;18.116;2022-11-18T15:38:24;3.45;;;1.20;;
75059;SDS011;63640;59.264;18.116;2022-11-18T15:40:49;4.13;;;1.10;;
75059;SDS011;63640;59.264;18.116;2022-11-18T15:43:17;2.08;;;0.82;;
75059;SDS011;63640;59.264;18.116;2022-11-18T15:45:43;4.32;;;1.13;;
75059;SDS011;63640;59.264;18.116;2022-11-18T15:48:08;3.42;;;1.02;;
75059;SDS011;63640;59.264;18.116;2022-11-18T15:50:34;2.30;;;0.88;;
75059;SDS011;63640;59.264;18.116;2022-11-18T15:52:59;2.90;;;1.00;;
75059;SDS011;63640;59.264;18.116;2022-11-18T15:55:25;4.45;;;1.02;;
75059;SDS011;63640;59.264;18.116;2022-11-18T15:57:50;2.65;;;0.90;;
75059;SDS011;63640;59.264;18.116;2022-11-18T16:00:16;3.60;;;1.00;;
75059;SDS011;63640;59.264;18.116;2022-11-18T16:02:41;3.30;;;0.88;;
75059;SDS011;63640;59.264;18.116;2022-11-18T16:05:07;5.25;;;1.23;;
75059;SDS011;63640;59.264;18.116;2022-11-18T16:07:33;3.10;;;1.02;;
75059;SDS011;63640;59.264;18.116;2022-11-18T16:09:58;3.05;;;0.98;;
75059;SDS011;63640;59.264;18.116;2022-11-18T16:12:42;4.75;;;1.00;;
75059;SDS011;63640;59.264;18.116;2022-11-18T16:15:10;1.60;;;0.73;;
75059;SDS011;63640;59.264;18.116;2022-11-18T16:17:55;2.67;;;0.93;;
75059;SDS011;63640;59.264;18.116;2022-11-18T16:20:20;4.35;;;1.30;;
75059;SDS011;63640;59.264;18.116;2022-11-18T16:22:46;2.75;;;0.80;;
75059;SDS011;63640;59.264;18.116;2022-11-18T16:25:12;3.40;;;1.00;;
75059;SDS011;63640;59.264;18.116;2022-11-18T16:27:37;2.20;;;0.80;;
75059;SDS011;63640;59.264;18.116;2022-11-18T16:30:03;5.22;;;0.95;;
75059;SDS011;63640;59.264;18.116;2022-11-18T16:32:29;2.03;;;0.85;;
75059;SDS011;63640;59.264;18.116;2022-11-18T16:34:55;2.67;;;1.15;;
75059;SDS011;63640;59.264;18.116;2022-11-18T16:37:21;3.10;;;1.17;;
75059;SDS011;63640;59.264;18.116;2022-11-18T16:39:47;3.17;;;1.00;;
75059;SDS011;63640;59.264;18.116;2022-11-18T16:42:13;10.52;;;1.20;;
75059;SDS011;63640;59.264;18.116;2022-11-18T16:44:38;2.83;;;0.90;;